Time;durP1;ratioP1;P1;durP2;ratioP2;P2;SDS_P1;SDS_P2;PMS_P1;PMS_P2;Temp;Humidity;BMP_temperature;BMP_pressure;BME280_temperature;BME280_humidity;BME280_pressure;Samples;Min_cycle;Max_cycle;Signal;HPM_P1;HPM_P2
2021/07/07 00:02:09;;;;;;;3.00;1.00;;;;;;;16.30;65.99;98776.81;3595385;40;20048;-73
2021/07/07 00:04:37;;;;;;;4.38;1.23;;;;;;;16.29;65.75;98770.66;3595641;40;20055;-73
2021/07/07 00:07:04;;;;;;;3.90;1.17;;;;;;;16.28;65.75;98766.34;3604738;40;20058;-72
2021/07/07 00:09:32;;;;;;;6.78;1.48;;;;;;;16.28;65.83;98776.22;3604935;40;20051;-72
2021/07/07 00:12:01;;;;;;;4.05;1.17;;;;;;;16.26;66.26;98768.44;3604766;40;20060;-71
2021/07/07 00:14:29;;;;;;;2.00;1.20;;;;;;;16.26;66.25;98756.97;3604143;40;20036;-72
2021/07/07 00:16:57;;;;;;;1.98;1.20;;;;;;;16.26;66.67;98756.97;3604969;40;20080;-71
2021/07/07 00:19:25;;;;;;;2.15;0.90;;;;;;;16.24;66.06;98753.72;3605017;40;20280;-71
2021/07/07 00:21:58;;;;;;;4.40;1.27;;;;;;;16.23;65.95;98763.56;3596572;40;20080;-73
2021/07/07 00:24:26;;;;;;;1.90;1.08;;;;;;;16.23;66.55;98760.91;3595754;40;20055;-73
2021/07/07 00:26:54;;;;;;;2.20;1.10;;;;;;;16.23;66.18;98766.22;3605645;40;20016;-73
2021/07/07 00:29:23;;;;;;;2.00;1.10;;;;;;;16.21;66.44;98772.84;3605601;40;20038;-78
2021/07/07 00:31:51;;;;;;;2.95;1.20;;;;;;;16.16;66.51;98757.50;3605697;40;20083;-72
2021/07/07 00:34:19;;;;;;;1.50;0.80;;;;;;;16.16;66.31;98751.38;3596031;40;20040;-73
2021/07/07 00:36:47;;;;;;;3.70;1.10;;;;;;;16.19;66.85;98757.06;3605481;40;20031;-72
2021/07/07 00:39:15;;;;;;;4.03;1.30;;;;;;;16.19;66.42;98754.41;3596246;40;20052;-73
2021/07/07 00:41:42;;;;;;;2.33;1.27;;;;;;;16.18;66.67;98762.63;3594292;40;20044;-72
2021/07/07 00:44:10;;;;;;;5.00;1.30;;;;;;;16.13;66.45;98758.00;3593914;40;20052;-72
2021/07/07 00:46:39;;;;;;;5.18;1.33;;;;;;;16.09;66.92;98757.63;3596639;40;20032;-73
2021/07/07 00:49:08;;;;;;;2.00;1.20;;;;;;;16.05;66.71;98748.47;3605839;40;20036;-72
2021/07/07 00:51:38;;;;;;;4.93;1.30;;;;;;;16.02;67.08;98759.59;3596604;40;20081;-72
2021/07/07 00:54:06;;;;;;;5.45;1.50;;;;;;;16.02;66.96;98762.25;3605324;40;20032;-72
2021/07/07 00:56:35;;;;;;;2.88;0.90;;;;;;;16.00;66.86;98750.19;3595861;40;20043;-72
2021/07/07 00:59:04;;;;;;;3.97;1.60;;;;;;;15.98;67.12;98747.75;3595797;40;20398;-72
2021/07/07 01:01:32;;;;;;;3.38;1.35;;;;;;;15.99;67.20;98762.72;3595937;40;20099;-73
2021/07/07 01:04:02;;;;;;;3.65;1.35;;;;;;;15.94;67.21;98767.09;3605832;40;20478;-73
2021/07/07 01:06:29;;;;;;;3.13;1.35;;;;;;;15.92;67.47;98771.84;3601355;40;20048;-71
2021/07/07 01:08:57;;;;;;;3.00;1.10;;;;;;;15.91;67.19;98773.69;3603585;40;20052;-72
2021/07/07 01:11:25;;;;;;;3.90;1.20;;;;;;;15.91;67.67;98783.56;3596628;40;20044;-72
2021/07/07 01:13:53;;;;;;;3.45;1.20;;;;;;;15.89;67.69;98786.47;3605658;40;20439;-72
2021/07/07 01:16:21;;;;;;;4.63;1.13;;;;;;;15.82;67.41;98783.06;3605335;40;20055;-72
2021/07/07 01:18:49;;;;;;;2.20;0.90;;;;;;;15.78;68.00;98785.38;3605705;40;20036;-72
2021/07/07 01:21:20;;;;;;;2.20;1.00;;;;;;;15.79;67.76;98768.31;3605437;40;20040;-71
2021/07/07 01:23:49;;;;;;;2.38;1.00;;;;;;;15.74;68.12;98762.06;3596425;40;20039;-71
2021/07/07 01:26:17;;;;;;;4.65;0.95;;;;;;;15.69;68.69;98767.28;3605234;40;20036;-73
2021/07/07 01:28:46;;;;;;;2.75;1.10;;;;;;;15.66;68.53;98768.53;3605551;40;20048;-73
2021/07/07 01:31:14;;;;;;;2.03;0.93;;;;;;;15.67;68.58;98751.47;3605789;40;20284;-71
2021/07/07 01:33:42;;;;;;;3.67;1.10;;;;;;;15.70;68.26;98740.38;3605360;40;20032;-71
2021/07/07 01:36:10;;;;;;;2.17;1.00;;;;;;;15.71;68.63;98768.66;3605074;40;20084;-73
2021/07/07 01:38:38;;;;;;;2.20;1.13;;;;;;;15.70;68.39;98779.53;3594754;40;20048;-72
2021/07/07 01:41:07;;;;;;;4.57;1.00;;;;;;;15.69;68.57;98775.25;3595583;40;20039;-72
2021/07/07 01:43:35;;;;;;;1.40;0.90;;;;;;;15.67;68.27;98775.47;3605460;40;20076;-71
2021/07/07 01:46:03;;;;;;;2.00;0.90;;;;;;;15.66;68.78;98784.50;3582592;40;20093;-72
2021/07/07 01:48:31;;;;;;;2.95;1.20;;;;;;;15.59;68.78;98773.09;3602973;40;20107;-71
2021/07/07 01:50:58;;;;;;;2.92;1.25;;;;;;;15.55;68.64;98755.94;3605322;40;20393;-71
2021/07/07 01:53:26;;;;;;;2.08;1.38;;;;;;;15.59;68.87;98743.78;3595964;40;20096;-71
2021/07/07 01:55:55;;;;;;;1.00;0.90;;;;;;;15.58;68.98;98753.63;3596317;40;20076;-73
2021/07/07 01:58:24;;;;;;;3.00;1.15;;;;;;;15.53;68.69;98766.81;3606939;40;20044;-71
2021/07/07 02:00:52;;;;;;;3.15;1.10;;;;;;;15.52;68.89;98767.06;3606817;40;20084;-72
2021/07/07 02:03:20;;;;;;;2.72;1.13;;;;;;;15.49;68.95;98754.19;3606842;40;20353;-72
2021/07/07 02:05:48;;;;;;;5.13;1.20;;;;;;;15.50;69.15;98753.13;3597292;40;20020;-73
2021/07/07 02:08:16;;;;;;;4.35;1.38;;;;;;;15.48;68.95;98756.03;3597711;40;20075;-72
2021/07/07 02:10:43;;;;;;;1.90;1.00;;;;;;;15.48;69.11;98758.69;3606597;40;20036;-71
2021/07/07 02:13:13;;;;;;;2.22;0.88;;;;;;;15.45;69.06;98759.13;3597766;40;20024;-71
2021/07/07 02:15:43;;;;;;;3.97;1.17;;;;;;;15.45;69.07;98782.31;3597918;40;20333;-72
2021/07/07 02:18:11;;;;;;;2.47;0.98;;;;;;;15.36;69.54;98769.28;3606844;40;20090;-73
2021/07/07 02:20:41;;;;;;;2.63;1.40;;;;;;;15.39;69.43;98756.56;3597613;40;20028;-73
2021/07/07 02:23:11;;;;;;;1.52;0.93;;;;;;;15.43;69.75;98761.22;3607354;40;20032;-73
2021/07/07 02:25:42;;;;;;;2.40;1.17;;;;;;;15.46;69.28;98762.63;3607308;40;20051;-73
2021/07/07 02:28:10;;;;;;;3.20;1.15;;;;;;;15.43;69.29;98774.56;3607088;40;20048;-74
2021/07/07 02:30:38;;;;;;;2.30;1.13;;;;;;;15.43;69.26;98787.03;3607462;40;20048;-72
2021/07/07 02:33:09;;;;;;;3.45;1.00;;;;;;;15.40;69.67;98785.66;3606852;40;20059;-72
2021/07/07 02:35:39;;;;;;;2.75;1.33;;;;;;;15.39;69.56;98757.38;3606899;40;20044;-73
2021/07/07 02:38:10;;;;;;;3.33;1.40;;;;;;;15.39;70.00;98754.72;3606786;40;20086;-73
2021/07/07 02:40:38;;;;;;;2.72;1.02;;;;;;;15.41;70.08;98776.59;3604199;40;20040;-73
2021/07/07 02:43:07;;;;;;;4.40;1.20;;;;;;;15.45;69.81;98782.31;3592806;40;20352;-73
2021/07/07 02:45:36;;;;;;;3.88;1.40;;;;;;;15.45;69.47;98776.97;3602412;40;20056;-73
2021/07/07 02:48:06;;;;;;;1.88;1.20;;;;;;;15.45;69.87;98785.78;3592532;40;20070;-73
2021/07/07 02:50:37;;;;;;;3.50;1.30;;;;;;;15.47;69.95;98781.06;3606319;40;20109;-73
2021/07/07 02:53:06;;;;;;;2.63;1.13;;;;;;;15.50;69.42;98782.44;3596945;40;20042;-73
2021/07/07 02:55:35;;;;;;;1.77;1.10;;;;;;;15.50;69.89;98785.09;3606382;40;20032;-73
2021/07/07 02:58:04;;;;;;;5.75;1.58;;;;;;;15.46;69.47;98792.72;3593548;40;20111;-73
2021/07/07 03:00:34;;;;;;;2.72;1.20;;;;;;;15.42;69.58;98796.06;3582748;40;20164;-73
2021/07/07 03:03:06;;;;;;;1.80;0.85;;;;;;;15.39;69.69;98807.16;3596007;40;20047;-73
2021/07/07 03:05:38;;;;;;;3.67;1.02;;;;;;;15.37;69.74;98807.41;3606538;39;20599;-73
2021/07/07 03:08:06;;;;;;;2.35;1.02;;;;;;;15.38;69.77;98810.88;3594218;40;20052;-72
2021/07/07 03:10:34;;;;;;;4.30;1.55;;;;;;;15.41;70.17;98802.44;3606223;40;20076;-73
2021/07/07 03:13:01;;;;;;;2.20;1.10;;;;;;;15.40;70.03;98792.81;3606939;40;20059;-73
2021/07/07 03:15:31;;;;;;;1.95;0.95;;;;;;;15.41;69.72;98805.09;3606766;40;20109;-72
2021/07/07 03:18:01;;;;;;;2.63;1.10;;;;;;;15.41;69.70;98813.09;3606562;40;20051;-73
2021/07/07 03:20:29;;;;;;;3.63;1.23;;;;;;;15.32;70.01;98820.56;3605993;40;20044;-73
2021/07/07 03:22:59;;;;;;;2.53;1.05;;;;;;;15.29;70.03;98797.84;3607050;40;20075;-72
2021/07/07 03:25:28;;;;;;;4.40;1.65;;;;;;;15.29;69.82;98795.19;3606875;40;20405;-73
2021/07/07 03:27:56;;;;;;;2.28;1.23;;;;;;;15.35;70.33;98785.50;3606363;40;20415;-73
2021/07/07 03:30:26;;;;;;;2.28;1.40;;;;;;;15.40;70.00;98790.97;3606631;40;20044;-73
2021/07/07 03:32:54;;;;;;;3.15;1.50;;;;;;;15.45;69.93;98791.09;3606491;40;20408;-73
2021/07/07 03:35:22;;;;;;;3.85;1.25;;;;;;;15.46;69.92;98789.25;3605375;40;20052;-73
2021/07/07 03:37:51;;;;;;;4.45;1.65;;;;;;;15.43;69.69;98793.19;3605314;40;20051;-73
2021/07/07 03:40:21;;;;;;;3.45;1.98;;;;;;;15.34;69.72;98795.31;3606299;40;20059;-73
2021/07/07 03:42:49;;;;;;;21.35;13.57;;;;;;;15.37;70.39;98780.75;3606976;40;20080;-73
2021/07/07 03:45:18;;;;;;;5.20;2.08;;;;;;;15.33;70.52;98776.91;3606835;40;20411;-72
2021/07/07 03:47:47;;;;;;;5.25;1.70;;;;;;;15.36;70.26;98787.94;3597189;40;20059;-73
2021/07/07 03:50:15;;;;;;;1.55;1.13;;;;;;;15.38;70.42;98797.56;3606505;40;20055;-73
2021/07/07 03:52:43;;;;;;;4.47;1.48;;;;;;;15.36;70.37;98795.94;3607130;40;20044;-73
2021/07/07 03:55:14;;;;;;;4.45;2.90;;;;;;;15.36;70.66;98795.94;3607190;40;20047;-73
2021/07/07 03:57:44;;;;;;;4.10;1.60;;;;;;;15.28;71.05;98800.75;3597280;40;20060;-72
2021/07/07 04:00:15;;;;;;;2.33;1.58;;;;;;;15.24;71.30;98803.03;3597350;40;20055;-73
2021/07/07 04:02:43;;;;;;;4.32;2.08;;;;;;;15.29;70.83;98803.19;3606737;40;20133;-73
2021/07/07 04:05:12;;;;;;;3.53;1.88;;;;;;;15.42;70.85;98817.38;3597424;40;20046;-73
2021/07/07 04:07:42;;;;;;;2.25;1.40;;;;;;;15.49;70.36;98831.44;3606241;40;20047;-72
2021/07/07 04:10:12;;;;;;;4.60;1.90;;;;;;;15.46;69.95;98837.22;3604244;40;20056;-73
2021/07/07 04:12:41;;;;;;;2.15;1.50;;;;;;;15.46;69.94;98838.00;3606593;40;20040;-72
2021/07/07 04:15:12;;;;;;;4.10;1.75;;;;;;;15.48;70.09;98835.97;3596571;40;20055;-73
2021/07/07 04:17:40;;;;;;;4.00;1.70;;;;;;;15.45;69.99;98825.75;3605454;40;20040;-73
2021/07/07 04:20:13;;;;;;;4.90;1.75;;;;;;;15.51;70.05;98824.03;3594098;40;20377;-73
2021/07/07 04:22:41;;;;;;;14.18;2.53;;;;;;;15.53;69.90;98836.09;3605774;40;20055;-73
2021/07/07 04:25:11;;;;;;;9.98;2.25;;;;;;;15.50;70.23;98841.03;3606497;40;20330;-73
2021/07/07 04:27:39;;;;;;;4.88;1.58;;;;;;;15.44;70.07;98837.44;3605922;40;20080;-73
2021/07/07 04:30:09;;;;;;;11.40;2.40;;;;;;;15.45;70.65;98843.56;3606261;40;20052;-75
2021/07/07 04:32:39;;;;;;;3.95;1.60;;;;;;;15.42;70.06;98852.00;3596090;40;20432;-74
2021/07/07 04:35:09;;;;;;;5.97;1.50;;;;;;;15.33;70.14;98844.31;3596688;40;20332;-74
2021/07/07 04:37:37;;;;;;;1.77;1.25;;;;;;;15.38;70.38;98845.50;3605658;40;20054;-74
2021/07/07 04:40:07;;;;;;;1.88;1.70;;;;;;;15.39;70.36;98847.13;3605876;40;20048;-75
2021/07/07 04:42:35;;;;;;;2.90;1.27;;;;;;;15.36;70.50;98841.22;3595960;40;20076;-73
2021/07/07 04:45:04;;;;;;;4.63;1.67;;;;;;;15.41;70.62;98850.38;3605668;40;20145;-77
2021/07/07 04:47:32;;;;;;;2.47;1.23;;;;;;;15.45;70.53;98854.22;3596657;40;20132;-72
2021/07/07 04:50:01;;;;;;;2.70;1.40;;;;;;;15.43;70.69;98865.13;3606385;40;20055;-74
2021/07/07 04:52:28;;;;;;;3.03;1.38;;;;;;;15.40;70.50;98864.75;3596530;40;20514;-75
2021/07/07 04:54:56;;;;;;;2.95;1.40;;;;;;;15.36;70.51;98875.84;3606294;40;20042;-73
2021/07/07 04:57:24;;;;;;;1.77;1.10;;;;;;;15.36;70.44;98870.50;3596309;40;20117;-70
2021/07/07 04:59:52;;;;;;;6.45;2.33;;;;;;;15.39;70.53;98871.94;3606144;40;20048;-72
2021/07/07 05:02:19;;;;;;;2.22;1.17;;;;;;;15.41;70.28;98875.16;3605581;40;20301;-71
2021/07/07 05:04:50;;;;;;;3.70;1.10;;;;;;;15.41;69.94;98877.84;3593812;40;20048;-72
2021/07/07 05:07:19;;;;;;;2.47;1.48;;;;;;;15.50;69.82;98876.50;3605490;40;20027;-72
2021/07/07 05:09:47;;;;;;;6.85;1.42;;;;;;;15.53;69.80;98881.38;3605882;40;20043;-72
2021/07/07 05:12:14;;;;;;;3.78;1.65;;;;;;;15.61;69.84;98877.59;3605792;40;20028;-71
2021/07/07 05:14:42;;;;;;;4.53;2.53;;;;;;;15.75;69.26;98883.63;3605777;40;20028;-71
2021/07/07 05:17:12;;;;;;;3.08;1.85;;;;;;;15.75;69.42;98876.44;3596292;40;20043;-72
2021/07/07 05:19:40;;;;;;;3.75;1.40;;;;;;;15.72;69.18;98879.56;3606517;40;20029;-73
2021/07/07 05:22:08;;;;;;;3.33;1.58;;;;;;;15.79;68.69;98874.94;3606015;40;20065;-74
2021/07/07 05:24:37;;;;;;;1.10;1.10;;;;;;;15.81;68.32;98882.72;3606279;40;20028;-75
2021/07/07 05:27:05;;;;;;;5.53;1.92;;;;;;;15.88;68.31;98880.81;3606020;40;20387;-73
2021/07/07 05:29:33;;;;;;;2.17;1.40;;;;;;;15.96;68.03;98880.50;3606670;39;20292;-73
2021/07/07 05:32:01;;;;;;;2.85;1.52;;;;;;;16.03;67.86;98886.53;3607631;40;20028;-72
2021/07/07 05:34:29;;;;;;;5.40;1.70;;;;;;;16.10;68.00;98889.94;3607550;40;20039;-74
2021/07/07 05:36:56;;;;;;;2.53;1.55;;;;;;;16.14;68.07;98886.81;3607149;40;20028;-73
2021/07/07 05:39:25;;;;;;;4.07;1.60;;;;;;;16.04;67.62;98890.84;3606600;40;20028;-73
2021/07/07 05:41:58;;;;;;;4.18;1.92;;;;;;;15.90;68.03;98899.22;3607363;40;20334;-75
2021/07/07 05:44:26;;;;;;;2.78;1.52;;;;;;;15.92;68.81;98903.31;3608087;40;20345;-72
2021/07/07 05:46:55;;;;;;;2.17;1.40;;;;;;;15.95;68.78;98902.03;3598249;40;20035;-71
2021/07/07 05:49:22;;;;;;;5.90;2.20;;;;;;;15.96;68.62;98891.16;3598052;40;20055;-72
2021/07/07 05:51:50;;;;;;;4.22;2.38;;;;;;;15.98;68.58;98894.41;3602455;40;20329;-74
2021/07/07 05:54:18;;;;;;;3.38;1.63;;;;;;;15.87;69.04;98894.34;3604452;40;20309;-71
2021/07/07 05:56:46;;;;;;;6.05;1.95;;;;;;;15.85;69.30;98892.72;3607156;40;20297;-72
2021/07/07 05:59:15;;;;;;;3.33;2.38;;;;;;;15.99;69.48;98892.53;3607429;40;20390;-73
2021/07/07 06:01:43;;;;;;;4.50;1.60;;;;;;;16.06;69.18;98893.28;3607268;40;20471;-74
2021/07/07 06:04:15;;;;;;;3.50;1.77;;;;;;;16.14;68.86;98908.16;3607832;40;20052;-73
2021/07/07 06:06:43;;;;;;;3.88;2.38;;;;;;;16.09;68.46;98906.16;3607671;40;20055;-74
2021/07/07 06:09:11;;;;;;;4.18;2.30;;;;;;;16.06;69.08;98904.75;3597818;40;20044;-74
2021/07/07 06:11:39;;;;;;;2.30;1.65;;;;;;;16.12;68.54;98905.69;3607411;40;20051;-73
2021/07/07 06:14:07;;;;;;;7.63;4.07;;;;;;;16.19;68.38;98908.28;3607123;40;20068;-73
2021/07/07 06:16:36;;;;;;;9.10;3.50;;;;;;;16.30;68.45;98899.50;3606587;40;20076;-73
2021/07/07 06:19:04;;;;;;;4.15;2.40;;;;;;;16.41;68.42;98904.06;3606902;40;20394;-74
2021/07/07 06:21:32;;;;;;;7.78;5.85;;;;;;;16.45;68.04;98913.25;3607154;40;20072;-74
2021/07/07 06:24:00;;;;;;;10.15;5.93;;;;;;;16.52;67.94;98911.28;3607174;40;20079;-74
2021/07/07 06:26:34;;;;;;;10.95;2.45;;;;;;;16.59;67.68;98912.00;3606515;40;20056;-75
2021/07/07 06:29:04;;;;;;;6.65;1.95;;;;;;;16.59;66.63;98916.53;3605381;40;20054;-74
2021/07/07 06:31:32;;;;;;;3.53;1.15;;;;;;;16.61;66.70;98909.09;3584481;40;20090;-73
2021/07/07 06:34:01;;;;;;;1.85;1.33;;;;;;;16.65;66.61;98915.59;3574834;40;20049;-73
2021/07/07 06:36:29;;;;;;;3.42;1.27;;;;;;;16.80;66.27;98920.53;3574531;40;20056;-73
2021/07/07 06:38:57;;;;;;;2.28;1.05;;;;;;;16.90;65.93;98917.28;3574354;40;20042;-73
2021/07/07 06:41:25;;;;;;;4.07;1.40;;;;;;;16.95;65.51;98920.09;3574089;40;20045;-75
2021/07/07 06:43:52;;;;;;;2.33;1.50;;;;;;;17.09;65.63;98916.16;3565650;40;20422;-73
2021/07/07 06:46:20;;;;;;;3.60;2.35;;;;;;;17.28;65.01;98919.53;3573949;40;20190;-73
2021/07/07 06:48:48;;;;;;;6.82;1.55;;;;;;;17.30;64.82;98922.75;3565204;40;20065;-73
2021/07/07 06:51:17;;;;;;;3.40;1.65;;;;;;;17.32;64.35;98920.69;3573709;40;20303;-73
2021/07/07 06:53:45;;;;;;;1.80;1.27;;;;;;;17.39;64.43;98918.72;3573955;40;20039;-73
2021/07/07 06:56:13;;;;;;;4.30;1.63;;;;;;;17.50;64.54;98922.41;3573847;40;20057;-73
2021/07/07 06:58:43;;;;;;;2.35;1.00;;;;;;;17.65;63.87;98920.06;3574284;40;20423;-73
2021/07/07 07:01:11;;;;;;;5.30;1.50;;;;;;;17.76;64.16;98916.59;3573533;40;20062;-73
2021/07/07 07:03:39;;;;;;;2.67;1.48;;;;;;;17.78;63.67;98916.34;3573649;40;20049;-75
2021/07/07 07:06:09;;;;;;;1.30;1.10;;;;;;;17.86;63.21;98918.66;3581628;40;20025;-74
2021/07/07 07:08:38;;;;;;;4.65;1.40;;;;;;;17.94;62.94;98920.13;3583925;40;20029;-74
2021/07/07 07:11:05;;;;;;;4.05;1.13;;;;;;;17.99;63.37;98925.59;3583659;40;20333;-75
2021/07/07 07:13:34;;;;;;;3.20;1.80;;;;;;;18.10;63.09;98926.59;3575199;40;20100;-74
2021/07/07 07:16:02;;;;;;;3.55;1.55;;;;;;;18.27;62.66;98922.09;3583154;40;20060;-72
2021/07/07 07:18:30;;;;;;;4.60;2.67;;;;;;;18.40;62.82;98924.47;3583611;40;20069;-74
2021/07/07 07:20:58;;;;;;;4.55;2.35;;;;;;;18.43;62.49;98920.53;3582395;40;20049;-72
2021/07/07 07:23:26;;;;;;;3.08;1.30;;;;;;;18.46;62.00;98920.06;3568888;40;20442;-72
2021/07/07 07:25:55;;;;;;;3.47;1.50;;;;;;;18.49;62.32;98920.38;3582026;40;20053;-72
2021/07/07 07:28:22;;;;;;;6.68;1.75;;;;;;;18.52;62.33;98914.53;3583828;40;20069;-73
2021/07/07 07:30:51;;;;;;;5.32;1.35;;;;;;;18.58;62.26;98923.47;3573420;40;20432;-73
2021/07/07 07:33:19;;;;;;;3.75;1.70;;;;;;;18.74;61.95;98920.03;3583367;40;20326;-73
2021/07/07 07:35:47;;;;;;;3.83;1.20;;;;;;;18.84;61.26;98924.72;3583775;40;20049;-74
2021/07/07 07:38:16;;;;;;;3.97;1.58;;;;;;;18.85;61.21;98923.66;3592228;40;20400;-73
2021/07/07 07:40:48;;;;;;;4.57;1.95;;;;;;;18.91;61.09;98917.34;3605977;40;20048;-74
2021/07/07 07:43:20;;;;;;;9.02;1.83;;;;;;;19.11;61.11;98918.72;3606223;40;20080;-74
2021/07/07 07:45:50;;;;;;;3.47;1.67;;;;;;;19.34;60.09;98913.16;3605876;40;20408;-74
2021/07/07 07:48:18;;;;;;;3.25;1.40;;;;;;;19.30;59.29;98915.50;3606077;40;20040;-73
2021/07/07 07:50:46;;;;;;;1.98;1.27;;;;;;;19.26;59.55;98913.56;3604042;40;20038;-74
2021/07/07 07:53:13;;;;;;;3.47;1.20;;;;;;;19.27;59.60;98902.63;3604807;39;20448;-77
2021/07/07 07:55:41;;;;;;;2.65;1.17;;;;;;;19.30;59.56;98902.09;3584067;40;20033;-73
2021/07/07 07:58:09;;;;;;;3.60;1.60;;;;;;;19.30;59.34;98903.97;3584459;40;20434;-73
2021/07/07 08:00:39;;;;;;;3.85;2.10;;;;;;;19.37;58.91;98903.81;3573898;40;20048;-74
2021/07/07 08:03:07;;;;;;;5.13;3.78;;;;;;;19.46;59.23;98905.81;3573706;40;20041;-73
2021/07/07 08:05:34;;;;;;;5.75;2.75;;;;;;;19.52;59.62;98902.16;3573988;40;20083;-74
2021/07/07 08:08:03;;;;;;;6.45;2.13;;;;;;;19.76;58.58;98910.81;3565872;40;20064;-76
2021/07/07 08:10:31;;;;;;;8.40;1.95;;;;;;;19.91;57.62;98902.13;3573656;40;20073;-74
2021/07/07 08:12:59;;;;;;;7.72;1.92;;;;;;;19.90;57.67;98905.88;3574174;40;20033;-74
2021/07/07 08:15:28;;;;;;;5.78;1.90;;;;;;;19.92;58.07;98903.75;3574219;40;20465;-73
2021/07/07 08:17:59;;;;;;;5.30;1.88;;;;;;;20.01;57.70;98914.84;3573507;40;20284;-74
2021/07/07 08:20:27;;;;;;;3.97;1.30;;;;;;;20.05;57.20;98910.59;3563755;40;20045;-73
2021/07/07 08:22:55;;;;;;;4.60;1.50;;;;;;;20.12;57.69;98911.19;3563682;40;20026;-73
2021/07/07 08:25:24;;;;;;;8.63;1.63;;;;;;;20.11;56.93;98912.28;3564189;40;20663;-73
2021/07/07 08:27:53;;;;;;;4.43;1.65;;;;;;;20.17;56.26;98908.59;3563736;40;20041;-73
2021/07/07 08:30:22;;;;;;;3.03;2.05;;;;;;;20.14;56.08;98919.03;3563836;40;20403;-73
2021/07/07 08:32:50;;;;;;;5.93;2.05;;;;;;;20.22;55.91;98918.56;3583004;40;20032;-74
2021/07/07 08:35:20;;;;;;;4.93;1.77;;;;;;;20.25;55.79;98928.81;3584134;40;20037;-75
2021/07/07 08:37:48;;;;;;;4.55;1.73;;;;;;;20.13;56.88;98915.53;3575385;40;20520;-74
2021/07/07 08:40:17;;;;;;;8.20;1.90;;;;;;;20.25;56.91;98915.38;3575117;40;20040;-73
2021/07/07 08:42:46;;;;;;;4.85;1.65;;;;;;;20.50;56.53;98930.97;3583838;40;20025;-72
2021/07/07 08:45:18;;;;;;;6.53;1.58;;;;;;;20.67;55.72;98931.66;3584092;40;20025;-74
2021/07/07 08:47:46;;;;;;;2.40;1.48;;;;;;;20.85;55.37;98921.59;3584157;40;20033;-75
2021/07/07 08:50:17;;;;;;;3.83;1.67;;;;;;;21.00;54.90;98937.84;3573395;40;20041;-73
2021/07/07 08:52:46;;;;;;;4.80;1.55;;;;;;;21.08;54.94;98940.03;3604497;40;20035;-73
2021/07/07 08:55:17;;;;;;;4.97;1.50;;;;;;;21.11;54.77;98934.16;3604738;40;20029;-73
2021/07/07 08:57:45;;;;;;;5.03;1.50;;;;;;;21.14;54.54;98933.63;3604114;40;20086;-73
2021/07/07 09:00:16;;;;;;;6.25;1.55;;;;;;;21.27;54.24;98943.16;3604421;40;20036;-73
2021/07/07 09:03:08;;;;;;;2.97;1.50;;;;;;;21.33;53.89;98938.63;3591910;40;20357;-74
2021/07/07 09:05:49;;;;;;;5.97;1.73;;;;;;;21.54;53.52;98935.00;3595545;40;20029;-74
2021/07/07 09:08:27;;;;;;;6.50;2.17;;;;;;;21.73;53.11;98929.97;3606004;40;20098;-73
2021/07/07 09:10:56;;;;;;;5.85;2.13;;;;;;;21.85;52.63;98935.16;3605733;40;20028;-73
2021/07/07 09:13:24;;;;;;;3.80;1.65;;;;;;;21.98;52.32;98935.47;3596295;40;20028;-73
2021/07/07 09:15:52;;;;;;;6.30;2.03;;;;;;;22.04;51.28;98941.66;3583304;40;20083;-74
2021/07/07 09:18:22;;;;;;;6.38;4.95;;;;;;;22.08;51.27;98940.06;3553261;40;20034;-73
2021/07/07 09:20:51;;;;;;;7.70;3.75;;;;;;;22.36;50.03;98935.31;3553207;40;20112;-73
2021/07/07 09:23:21;;;;;;;3.80;1.75;;;;;;;22.58;49.82;98930.53;3553572;40;20071;-73
2021/07/07 09:25:53;;;;;;;6.97;2.17;;;;;;;22.86;49.45;98936.44;3553446;40;20040;-73
2021/07/07 09:28:24;;;;;;;5.75;1.77;;;;;;;23.13;47.90;98928.94;3545049;40;20451;-73
2021/07/07 09:30:54;;;;;;;8.02;2.40;;;;;;;23.30;46.59;98933.22;3553029;40;20475;-74
2021/07/07 09:33:23;;;;;;;9.43;2.67;;;;;;;23.46;45.27;98932.09;3552768;40;20407;-73
2021/07/07 09:36:20;;;;;;;7.53;2.35;;;;;;;23.33;45.79;98925.38;3544830;40;20023;-73
2021/07/07 09:38:49;;;;;;;8.40;2.13;;;;;;;23.43;45.15;98929.94;3552395;40;20049;-73
2021/07/07 09:41:20;;;;;;;7.25;2.33;;;;;;;23.64;44.25;98931.53;3553088;40;20732;-73
2021/07/07 09:43:49;;;;;;;5.50;2.13;;;;;;;23.43;43.75;98935.34;3542856;40;20301;-73
2021/07/07 09:46:18;;;;;;;6.60;2.03;;;;;;;23.21;43.13;98941.84;3548636;40;20193;-75
2021/07/07 09:48:47;;;;;;;7.55;2.13;;;;;;;22.99;42.91;98944.06;3577241;40;20040;-74
2021/07/07 09:51:15;;;;;;;5.93;1.80;;;;;;;22.69;44.67;98951.00;3603970;40;20040;-74
2021/07/07 09:53:42;;;;;;;3.28;1.45;;;;;;;22.55;46.16;98944.53;3603936;40;20079;-74
2021/07/07 09:56:10;;;;;;;8.75;3.85;;;;;;;22.49;47.22;98950.97;3594637;40;20034;-75
2021/07/07 09:58:39;;;;;;;4.40;1.92;;;;;;;22.47;47.27;98956.63;3595381;40;20024;-75
2021/07/07 10:01:07;;;;;;;4.63;1.85;;;;;;;22.75;47.23;98962.59;3604010;40;20054;-74
2021/07/07 10:03:36;;;;;;;7.07;1.95;;;;;;;22.93;45.80;98953.19;3604422;40;20030;-75
2021/07/07 10:06:07;;;;;;;7.43;2.22;;;;;;;22.84;46.24;98944.00;3604033;40;20036;-75
2021/07/07 10:08:35;;;;;;;8.38;2.40;;;;;;;22.85;46.25;98943.72;3594699;40;20076;-75
2021/07/07 10:11:04;;;;;;;3.88;1.60;;;;;;;23.06;45.23;98944.56;3604174;40;20068;-73
2021/07/07 10:13:33;;;;;;;4.32;1.45;;;;;;;23.15;44.79;98947.53;3598442;40;20341;-74
2021/07/07 10:16:02;;;;;;;4.18;1.40;;;;;;;23.11;43.69;98952.66;3595492;40;20044;-75
2021/07/07 10:18:32;;;;;;;5.47;1.90;;;;;;;23.08;43.77;98945.13;3604786;40;20063;-75
2021/07/07 10:21:00;;;;;;;7.90;2.13;;;;;;;23.20;43.62;98939.44;3594686;40;20028;-74
2021/07/07 10:23:32;;;;;;;5.05;1.73;;;;;;;23.38;43.46;98941.56;3595327;40;20389;-73
2021/07/07 10:26:02;;;;;;;4.45;1.90;;;;;;;23.58;43.46;98939.91;3594896;40;20025;-74
2021/07/07 10:28:30;;;;;;;7.03;1.80;;;;;;;23.78;42.83;98934.47;3594498;40;20448;-73
2021/07/07 10:31:00;;;;;;;6.55;1.90;;;;;;;23.90;42.45;98931.47;3602807;40;20064;-75
2021/07/07 10:33:31;;;;;;;4.10;1.50;;;;;;;24.06;41.11;98937.59;3593345;40;20129;-74
2021/07/07 10:36:22;;;;;;;5.47;1.70;;;;;;;24.22;41.60;98931.84;3603036;40;20078;-74
2021/07/07 10:38:52;;;;;;;8.73;2.35;;;;;;;24.30;41.15;98933.16;3602962;40;20032;-75
2021/07/07 10:41:47;;;;;;;5.15;1.88;;;;;;;24.27;41.07;98924.78;3592658;40;20057;-74
2021/07/07 10:44:46;;;;;;;5.20;1.77;;;;;;;24.30;40.89;98929.63;3603065;40;20032;-74
2021/07/07 10:47:39;;;;;;;4.97;1.70;;;;;;;24.32;41.59;98930.97;3602585;40;20458;-74
2021/07/07 10:50:11;;;;;;;4.97;1.83;;;;;;;24.47;40.82;98932.78;3602736;40;20039;-74
2021/07/07 10:52:43;;;;;;;8.05;3.25;;;;;;;24.60;40.52;98937.56;3602551;40;20081;-75
2021/07/07 10:55:13;;;;;;;6.32;1.90;;;;;;;24.63;39.78;98931.59;3603470;40;20065;-75
2021/07/07 10:57:43;;;;;;;4.43;1.50;;;;;;;24.62;39.40;98931.91;3594367;40;20396;-75
2021/07/07 11:00:30;;;;;;;8.80;2.63;;;;;;;24.69;39.29;98930.47;3593422;40;20357;-74
2021/07/07 11:03:20;;;;;;;5.88;1.73;;;;;;;24.72;38.96;98926.41;3603055;40;20033;-73
2021/07/07 11:05:49;;;;;;;3.00;1.45;;;;;;;24.55;38.90;98926.00;3593514;40;20040;-73
2021/07/07 11:08:20;;;;;;;4.55;1.90;;;;;;;24.45;38.41;98926.84;3603686;40;20047;-73
2021/07/07 11:10:56;;;;;;;9.05;2.58;;;;;;;24.39;37.90;98919.88;3594559;40;20032;-75
2021/07/07 11:13:24;;;;;;;3.95;1.75;;;;;;;24.58;38.23;98925.44;3593396;40;20121;-74
2021/07/07 11:15:55;;;;;;;5.05;1.85;;;;;;;24.78;37.63;98929.84;3595413;40;20036;-73
2021/07/07 11:18:25;;;;;;;4.82;1.88;;;;;;;24.90;37.95;98930.31;3594401;40;20113;-75
2021/07/07 11:21:04;;;;;;;3.33;1.50;;;;;;;25.02;37.79;98932.63;3603597;40;20028;-75
2021/07/07 11:23:33;;;;;;;2.45;1.10;;;;;;;25.04;38.11;98923.16;3603790;40;20028;-75
2021/07/07 11:26:00;;;;;;;5.68;2.10;;;;;;;25.07;38.76;98930.72;3602927;40;20044;-73
2021/07/07 11:28:28;;;;;;;3.33;1.50;;;;;;;25.12;38.54;98927.19;3604094;39;20027;-75
2021/07/07 11:30:57;;;;;;;6.43;1.63;;;;;;;25.18;38.42;98926.03;3604494;40;20028;-73
2021/07/07 11:33:27;;;;;;;5.43;1.60;;;;;;;25.25;38.67;98933.81;3604028;40;20048;-75
2021/07/07 11:35:55;;;;;;;5.20;1.60;;;;;;;25.14;38.77;98927.69;3596051;40;20057;-74
2021/07/07 11:38:27;;;;;;;4.95;1.60;;;;;;;25.00;39.30;98926.72;3604581;40;20385;-73
2021/07/07 11:40:56;;;;;;;5.85;1.80;;;;;;;25.10;38.65;98924.75;3593642;40;20025;-75
2021/07/07 11:43:27;;;;;;;4.90;1.67;;;;;;;25.14;38.83;98939.31;3593340;40;20103;-73
2021/07/07 11:45:57;;;;;;;8.82;2.63;;;;;;;25.23;38.79;98930.56;3603628;40;20025;-73